createdAt,value
2023-05-05T00:00:33.642Z,0.00
2023-05-05T00:01:33.825Z,0.00
2023-05-05T00:02:33.965Z,0.00
2023-05-05T00:03:34.201Z,0.00
2023-05-05T00:04:34.166Z,0.00
2023-05-05T00:05:34.312Z,0.00
2023-05-05T00:06:34.449Z,0.00
2023-05-05T00:07:34.679Z,0.00
2023-05-05T00:08:34.750Z,0.00
2023-05-05T00:09:34.841Z,0.00
2023-05-05T00:10:34.988Z,0.00
2023-05-05T00:11:35.130Z,0.00
2023-05-05T00:12:35.359Z,0.00
2023-05-05T00:13:35.457Z,0.00
2023-05-05T00:14:35.559Z,0.00
2023-05-05T00:15:35.705Z,0.00
2023-05-05T00:16:35.771Z,0.00
2023-05-05T00:17:35.956Z,0.00
2023-05-05T00:18:36.016Z,0.00
2023-05-05T00:19:36.163Z,0.00
2023-05-05T00:20:36.317Z,0.00
2023-05-05T00:21:36.422Z,0.00
2023-05-05T00:22:36.586Z,0.00
2023-05-05T00:23:36.779Z,0.00
2023-05-05T00:24:36.810Z,0.00
2023-05-05T00:25:36.950Z,0.00
2023-05-05T00:26:37.161Z,0.00
2023-05-05T00:27:38.935Z,0.00
2023-05-05T00:28:37.349Z,0.00
2023-05-05T00:29:37.490Z,0.00
2023-05-05T00:30:37.680Z,0.00
2023-05-05T00:31:37.894Z,0.00
2023-05-05T00:32:37.906Z,0.00
2023-05-05T00:33:38.054Z,0.00
2023-05-05T00:34:38.158Z,0.00
2023-05-05T00:35:38.304Z,0.00
2023-05-05T00:36:38.397Z,0.00
2023-05-05T00:37:38.567Z,0.00
2023-05-05T00:38:38.650Z,0.00
2023-05-05T00:39:38.793Z,0.00
2023-05-05T00:40:38.922Z,0.00
2023-05-05T00:41:39.016Z,0.00
2023-05-05T00:42:39.156Z,0.00
2023-05-05T00:43:39.374Z,0.00
2023-05-05T00:44:39.435Z,0.00
2023-05-05T00:45:39.539Z,0.00
2023-05-05T00:46:39.765Z,0.00
2023-05-05T00:47:39.814Z,0.00
2023-05-05T00:48:39.949Z,0.00
2023-05-05T00:49:40.097Z,0.00
2023-05-05T00:50:40.246Z,0.00
2023-05-05T00:51:40.431Z,0.00
2023-05-05T00:52:40.496Z,0.00
2023-05-05T00:53:40.620Z,0.00
2023-05-05T00:54:40.730Z,0.00
2023-05-05T00:55:40.827Z,0.00
2023-05-05T00:56:40.952Z,0.00
2023-05-05T00:57:41.049Z,0.00
2023-05-05T00:58:41.187Z,0.00
2023-05-05T00:59:41.340Z,0.00
2023-05-05T01:00:41.396Z,0.00
2023-05-05T01:01:41.575Z,0.00
2023-05-05T01:02:41.696Z,0.00
2023-05-05T01:03:41.976Z,0.00
2023-05-05T01:04:41.884Z,0.00
2023-05-05T01:05:42.044Z,0.00
2023-05-05T01:06:42.158Z,0.00
2023-05-05T01:07:42.282Z,0.00
2023-05-05T01:08:42.436Z,0.00
2023-05-05T01:09:42.539Z,0.00
2023-05-05T01:10:42.709Z,0.00
2023-05-05T01:11:42.827Z,0.00
2023-05-05T01:12:42.965Z,0.00
2023-05-05T01:13:43.046Z,0.00
2023-05-05T01:14:43.150Z,0.00
2023-05-05T01:15:43.274Z,0.00
2023-05-05T01:16:43.452Z,0.00
2023-05-05T01:17:43.531Z,0.00
2023-05-05T01:18:43.593Z,0.00
2023-05-05T01:19:43.717Z,0.00
2023-05-05T01:20:43.862Z,0.00
2023-05-05T01:21:43.957Z,0.00
2023-05-05T01:22:44.070Z,0.00
2023-05-05T01:23:44.270Z,0.00
2023-05-05T01:24:44.383Z,0.00
2023-05-05T01:25:44.504Z,0.00
2023-05-05T01:26:44.816Z,0.00
2023-05-05T01:27:44.760Z,0.00
2023-05-05T01:28:44.854Z,0.00
2023-05-05T01:29:45.099Z,0.00
2023-05-05T01:30:45.126Z,0.00
2023-05-05T01:31:45.417Z,0.00
2023-05-05T01:32:45.396Z,0.00
2023-05-05T01:33:45.531Z,0.00
2023-05-05T01:34:45.651Z,0.00
2023-05-05T01:35:45.868Z,0.00
2023-05-05T01:36:45.945Z,0.00
2023-05-05T01:37:46.047Z,0.00
2023-05-05T01:38:46.184Z,0.00
2023-05-05T01:39:46.326Z,0.00
2023-05-05T01:40:46.492Z,0.00
2023-05-05T01:41:46.590Z,0.00
2023-05-05T01:42:47.234Z,0.00
2023-05-05T01:43:46.878Z,0.00
2023-05-05T01:44:46.913Z,0.00
2023-05-05T01:45:47.081Z,0.00
2023-05-05T01:46:47.116Z,0.00
2023-05-05T01:47:47.254Z,0.00
2023-05-05T01:48:47.388Z,0.00
2023-05-05T01:49:47.490Z,0.00
2023-05-05T01:50:47.549Z,0.00
2023-05-05T01:51:47.687Z,0.00
2023-05-05T01:52:47.770Z,0.00
2023-05-05T01:53:47.879Z,0.00
2023-05-05T01:54:48.010Z,0.00
2023-05-05T01:55:48.116Z,0.00
2023-05-05T01:56:48.235Z,0.00
2023-05-05T01:57:48.383Z,0.00
2023-05-05T01:58:48.512Z,0.00
2023-05-05T01:59:48.577Z,0.00
2023-05-05T02:00:48.714Z,0.00
2023-05-05T02:01:48.777Z,0.00
2023-05-05T02:02:48.928Z,0.00
2023-05-05T02:03:48.993Z,0.00
2023-05-05T02:04:49.124Z,0.00
2023-05-05T02:05:49.270Z,0.00
2023-05-05T02:06:49.383Z,0.00
2023-05-05T02:07:49.772Z,0.00
2023-05-05T02:08:49.722Z,0.00
2023-05-05T02:09:49.725Z,0.00
2023-05-05T02:10:49.834Z,0.00
2023-05-05T02:11:49.946Z,0.00
2023-05-05T02:12:50.124Z,0.00
2023-05-05T02:13:50.275Z,0.00
2023-05-05T02:14:50.616Z,0.00
2023-05-05T02:15:50.423Z,0.00
2023-05-05T02:16:50.524Z,0.00
2023-05-05T02:17:50.664Z,0.00
2023-05-05T02:18:50.730Z,0.00
2023-05-05T02:19:50.873Z,0.00
2023-05-05T02:20:51.021Z,0.00
2023-05-05T02:21:51.152Z,0.00
2023-05-05T02:22:51.306Z,0.00
2023-05-05T02:23:51.533Z,0.00
2023-05-05T02:24:51.622Z,0.00
2023-05-05T02:25:51.669Z,0.00
2023-05-05T02:26:51.797Z,0.00
2023-05-05T02:27:51.939Z,0.00
2023-05-05T02:28:52.076Z,0.00
2023-05-05T02:29:52.220Z,0.00
2023-05-05T02:30:52.348Z,0.00
2023-05-05T02:31:52.692Z,0.00
2023-05-05T02:32:52.633Z,0.00
2023-05-05T02:33:52.756Z,0.00
2023-05-05T02:34:52.888Z,0.00
2023-05-05T02:35:53.046Z,0.00
2023-05-05T02:36:53.136Z,0.00
2023-05-05T02:37:53.269Z,0.00
2023-05-05T02:38:53.498Z,0.00
2023-05-05T02:39:53.528Z,0.00
2023-05-05T02:40:53.664Z,0.00
2023-05-05T02:41:53.759Z,0.00
2023-05-05T02:42:53.922Z,0.00
2023-05-05T02:43:54.135Z,0.00
2023-05-05T02:44:54.155Z,0.00
2023-05-05T02:45:54.350Z,0.00
2023-05-05T02:46:54.578Z,0.00
2023-05-05T02:47:54.551Z,0.00
2023-05-05T02:48:54.681Z,0.00
2023-05-05T02:49:54.818Z,0.00
2023-05-05T02:50:54.956Z,0.00
2023-05-05T02:51:55.152Z,0.00
2023-05-05T02:52:55.206Z,0.00
2023-05-05T02:53:55.351Z,0.00
2023-05-05T02:54:55.513Z,0.00
2023-05-05T02:55:55.663Z,0.00
2023-05-05T02:56:55.766Z,0.00
2023-05-05T02:57:55.858Z,0.00
2023-05-05T02:58:55.963Z,0.00
2023-05-05T02:59:56.093Z,0.00
2023-05-05T03:00:56.345Z,0.00
2023-05-05T03:01:56.467Z,0.00
2023-05-05T03:02:56.521Z,0.00
2023-05-05T03:03:56.731Z,0.00
2023-05-05T03:04:56.775Z,0.00
2023-05-05T03:05:56.908Z,0.00
2023-05-05T03:06:57.056Z,0.00
2023-05-05T03:07:57.207Z,0.00
2023-05-05T03:08:57.317Z,0.00
2023-05-05T03:09:57.384Z,0.00
2023-05-05T03:10:57.538Z,0.00
2023-05-05T03:11:57.667Z,0.00
2023-05-05T03:12:57.907Z,0.00
2023-05-05T03:13:57.928Z,0.00
2023-05-05T03:14:58.044Z,0.00
2023-05-05T03:15:58.190Z,0.00
2023-05-05T03:16:58.355Z,0.00
2023-05-05T03:17:58.494Z,0.00
2023-05-05T03:18:58.556Z,0.00
2023-05-05T03:19:58.697Z,0.00
2023-05-05T03:20:58.883Z,0.00
2023-05-05T03:21:59.008Z,0.00
2023-05-05T03:22:59.121Z,0.00
2023-05-05T03:23:59.294Z,0.00
2023-05-05T03:24:59.338Z,0.00
2023-05-05T03:25:59.464Z,0.00
2023-05-05T03:26:59.639Z,0.00
2023-05-05T03:27:59.733Z,0.00
2023-05-05T03:28:59.851Z,0.00
2023-05-05T03:29:59.982Z,0.00
2023-05-05T03:31:00.132Z,0.00
2023-05-05T03:32:00.335Z,0.00
2023-05-05T03:33:00.414Z,0.00
2023-05-05T03:34:00.544Z,0.00
2023-05-05T03:35:00.668Z,0.00
2023-05-05T03:36:00.782Z,0.00
2023-05-05T03:37:00.949Z,0.00
2023-05-05T03:38:01.034Z,0.00
2023-05-05T03:39:01.171Z,0.00
2023-05-05T03:40:01.307Z,0.00
2023-05-05T03:41:01.442Z,0.00
2023-05-05T03:42:01.568Z,0.00
2023-05-05T03:43:01.669Z,0.00
2023-05-05T03:44:01.805Z,0.00
2023-05-05T03:45:01.871Z,0.00
2023-05-05T03:46:02.051Z,0.00
2023-05-05T03:47:02.163Z,0.00
2023-05-05T03:48:02.302Z,0.00
2023-05-05T03:49:02.405Z,0.00
2023-05-05T03:50:02.542Z,0.00
2023-05-05T03:51:02.662Z,0.00
2023-05-05T03:52:02.797Z,0.00
2023-05-05T03:53:02.881Z,0.00
2023-05-05T03:54:03.008Z,0.00
2023-05-05T03:55:03.168Z,0.00
2023-05-05T03:56:03.322Z,0.00
2023-05-05T03:57:03.462Z,0.00
2023-05-05T03:58:03.562Z,0.00
2023-05-05T03:59:03.749Z,5.62
2023-05-05T04:00:03.822Z,5.62
2023-05-05T04:01:03.954Z,5.62
2023-05-05T04:02:04.115Z,5.62
2023-05-05T04:03:04.367Z,5.62
2023-05-05T04:04:04.409Z,5.62
2023-05-05T04:05:04.500Z,5.62
2023-05-05T04:06:04.552Z,5.62
2023-05-05T04:07:04.704Z,5.62
2023-05-05T04:08:04.835Z,5.62
2023-05-05T04:09:04.962Z,11.25
2023-05-05T04:10:05.140Z,11.25
2023-05-05T04:11:05.198Z,11.25
2023-05-05T04:12:05.328Z,11.25
2023-05-05T04:13:05.518Z,11.25
2023-05-05T04:14:05.653Z,11.25
2023-05-05T04:15:05.745Z,11.25
2023-05-05T04:16:05.902Z,16.88
2023-05-05T04:17:06.024Z,16.88
2023-05-05T04:18:06.189Z,16.88
2023-05-05T04:19:06.297Z,16.88
2023-05-05T04:20:06.608Z,16.88
2023-05-05T04:21:06.531Z,22.50
2023-05-05T04:22:06.639Z,22.50
2023-05-05T04:23:06.793Z,22.50
2023-05-05T04:24:06.948Z,22.50
2023-05-05T04:25:07.099Z,22.50
2023-05-05T04:26:07.205Z,28.12
2023-05-05T04:27:07.295Z,28.12
2023-05-05T04:28:07.564Z,28.12
2023-05-05T04:29:07.556Z,28.12
2023-05-05T04:30:08.176Z,28.12
2023-05-05T04:31:07.818Z,33.75
2023-05-05T04:32:07.956Z,33.75
2023-05-05T04:33:08.035Z,33.75
2023-05-05T04:34:08.171Z,33.75
2023-05-05T04:35:08.280Z,33.75
2023-05-05T04:36:08.371Z,33.75
2023-05-05T04:37:08.534Z,33.75
2023-05-05T04:38:08.633Z,39.38
2023-05-05T04:39:08.771Z,39.38
2023-05-05T04:40:09.186Z,39.38
2023-05-05T04:41:09.011Z,39.38
2023-05-05T04:42:09.140Z,39.38
2023-05-05T04:43:09.359Z,39.38
2023-05-05T04:44:09.425Z,45.00
2023-05-05T04:45:09.604Z,45.00
2023-05-05T04:46:09.769Z,45.00
2023-05-05T04:47:10.592Z,45.00
2023-05-05T04:48:10.042Z,50.62
2023-05-05T04:49:10.082Z,50.62
2023-05-05T04:50:10.529Z,56.25
2023-05-05T04:51:10.339Z,56.25
2023-05-05T04:52:10.462Z,56.25
2023-05-05T04:53:10.634Z,56.25
2023-05-05T04:54:10.717Z,56.25
2023-05-05T04:55:10.844Z,56.25
2023-05-05T04:56:10.998Z,56.25
2023-05-05T04:57:11.096Z,56.25
2023-05-05T04:58:11.212Z,56.25
2023-05-05T04:59:11.352Z,56.25
2023-05-05T05:00:11.672Z,56.25
2023-05-05T05:01:11.641Z,61.88
2023-05-05T05:02:11.858Z,61.88
2023-05-05T05:03:11.955Z,67.50
2023-05-05T05:04:12.104Z,67.50
2023-05-05T05:05:12.232Z,67.50
2023-05-05T05:06:12.314Z,73.12
2023-05-05T05:07:12.483Z,73.12
2023-05-05T05:08:12.574Z,73.12
2023-05-05T05:09:12.731Z,78.75
2023-05-05T05:10:12.857Z,84.38
2023-05-05T05:11:12.997Z,84.38
2023-05-05T05:12:13.197Z,90.00
2023-05-05T05:13:13.428Z,90.00
2023-05-05T05:14:13.390Z,90.00
2023-05-05T05:15:13.519Z,95.62
2023-05-05T05:16:13.682Z,101.25
2023-05-05T05:17:13.808Z,106.88
2023-05-05T05:18:13.896Z,106.88
2023-05-05T05:19:14.035Z,112.50
2023-05-05T05:20:14.218Z,118.12
2023-05-05T05:21:14.306Z,112.50
2023-05-05T05:22:14.444Z,123.75
2023-05-05T05:23:14.734Z,123.75
2023-05-05T05:24:14.715Z,123.75
2023-05-05T05:25:14.873Z,123.75
2023-05-05T05:26:14.959Z,123.75
2023-05-05T05:27:15.092Z,123.75
2023-05-05T05:28:15.236Z,135.00
2023-05-05T05:29:15.347Z,140.62
2023-05-05T05:30:15.473Z,151.88
2023-05-05T05:31:15.634Z,157.50
2023-05-05T05:32:15.901Z,151.88
2023-05-05T05:33:15.940Z,157.50
2023-05-05T05:34:16.035Z,180.00
2023-05-05T05:35:16.110Z,196.88
2023-05-05T05:36:16.257Z,180.00
2023-05-05T05:37:16.368Z,174.38
2023-05-05T05:38:16.549Z,168.75
2023-05-05T05:39:16.611Z,157.50
2023-05-05T05:40:16.748Z,185.62
2023-05-05T05:41:16.840Z,191.25
2023-05-05T05:42:16.967Z,157.50
2023-05-05T05:43:17.120Z,185.62
2023-05-05T05:44:17.234Z,213.75
2023-05-05T05:45:17.494Z,241.88
2023-05-05T05:46:17.559Z,213.75
2023-05-05T05:47:17.644Z,230.62
2023-05-05T05:48:17.738Z,236.25
2023-05-05T05:49:17.890Z,202.50
2023-05-05T05:50:18.017Z,270.00
2023-05-05T05:51:18.161Z,281.25
2023-05-05T05:52:18.288Z,264.38
2023-05-05T05:53:18.449Z,264.38
2023-05-05T05:54:18.543Z,258.75
2023-05-05T05:55:18.687Z,225.00
2023-05-05T05:56:18.779Z,275.62
2023-05-05T05:57:18.918Z,281.25
2023-05-05T05:58:19.066Z,286.88
2023-05-05T05:59:19.259Z,286.88
2023-05-05T06:00:19.355Z,236.25
2023-05-05T06:01:19.762Z,258.75
2023-05-05T06:02:19.650Z,247.50
2023-05-05T06:03:19.967Z,247.50
2023-05-05T06:04:19.991Z,230.62
2023-05-05T06:05:20.056Z,270.00
2023-05-05T06:06:20.124Z,258.75
2023-05-05T06:07:20.233Z,264.38
2023-05-05T06:08:20.347Z,286.88
2023-05-05T06:09:20.556Z,270.00
2023-05-05T06:11:20.745Z,303.75
2023-05-05T06:12:20.935Z,258.75
2023-05-05T06:13:20.962Z,264.38
2023-05-05T06:14:21.111Z,315.00
2023-05-05T06:15:21.228Z,326.25
2023-05-05T06:16:21.385Z,331.88
2023-05-05T06:17:21.444Z,360.00
2023-05-05T06:18:21.629Z,348.75
2023-05-05T06:19:21.764Z,331.88
2023-05-05T06:20:21.826Z,405.00
2023-05-05T06:21:21.963Z,382.50
2023-05-05T06:22:22.125Z,382.50
2023-05-05T06:23:22.216Z,433.12
2023-05-05T06:24:22.365Z,455.62
2023-05-05T06:25:22.445Z,421.88
2023-05-05T06:26:22.581Z,427.50
2023-05-05T06:27:22.704Z,427.50
2023-05-05T06:28:22.818Z,450.00
2023-05-05T06:29:22.940Z,444.38
2023-05-05T06:30:23.068Z,365.62
2023-05-05T06:31:23.263Z,478.12
2023-05-05T06:32:23.279Z,483.75
2023-05-05T06:33:23.398Z,455.62
2023-05-05T06:34:23.542Z,421.88
2023-05-05T06:35:23.653Z,399.38
2023-05-05T06:36:24.127Z,421.88
2023-05-05T06:37:23.928Z,433.12
2023-05-05T06:38:24.079Z,382.50
2023-05-05T06:39:24.236Z,376.88
2023-05-05T06:40:24.318Z,354.38
2023-05-05T06:41:24.454Z,337.50
2023-05-05T06:42:24.557Z,315.00
2023-05-05T06:43:24.745Z,286.88
2023-05-05T06:44:24.849Z,258.75
2023-05-05T06:45:24.928Z,258.75
2023-05-05T06:46:25.035Z,247.50
2023-05-05T06:47:25.234Z,247.50
2023-05-05T06:48:25.261Z,275.62
2023-05-05T06:49:25.418Z,320.62
2023-05-05T06:50:25.548Z,388.12
2023-05-05T06:51:25.700Z,421.88
2023-05-05T06:52:25.832Z,405.00
2023-05-05T06:53:25.936Z,382.50
2023-05-05T06:54:26.034Z,399.38
2023-05-05T06:55:26.150Z,421.88
2023-05-05T06:56:26.245Z,427.50
2023-05-05T06:57:26.399Z,382.50
2023-05-05T06:58:26.525Z,348.75
2023-05-05T06:59:26.644Z,354.38
2023-05-05T07:00:26.802Z,416.25
2023-05-05T07:01:26.963Z,427.50
2023-05-05T07:02:27.133Z,427.50
2023-05-05T07:03:27.169Z,596.25
2023-05-05T07:04:27.262Z,613.12
2023-05-05T07:05:27.518Z,607.50
2023-05-05T07:06:27.496Z,545.62
2023-05-05T07:07:27.694Z,450.00
2023-05-05T07:08:27.787Z,517.50
2023-05-05T07:09:28.020Z,500.62
2023-05-05T07:10:28.146Z,545.62
2023-05-05T07:11:28.489Z,551.25
2023-05-05T07:12:28.315Z,450.00
2023-05-05T07:13:28.372Z,382.50
2023-05-05T07:14:28.505Z,421.88
2023-05-05T07:15:29.816Z,405.00
2023-05-05T07:16:28.791Z,393.75
2023-05-05T07:17:28.946Z,343.12
2023-05-05T07:18:28.984Z,438.75
2023-05-05T07:19:29.187Z,427.50
2023-05-05T07:20:29.239Z,421.88
2023-05-05T07:21:29.336Z,433.12
2023-05-05T07:22:29.508Z,438.75
2023-05-05T07:23:29.665Z,405.00
2023-05-05T07:24:29.751Z,416.25
2023-05-05T07:25:29.897Z,483.75
2023-05-05T07:26:30.067Z,517.50
2023-05-05T07:27:30.135Z,495.00
2023-05-05T07:28:30.280Z,562.50
2023-05-05T07:29:30.388Z,697.50
2023-05-05T07:30:30.481Z,691.88
2023-05-05T07:31:30.687Z,635.62
2023-05-05T07:32:30.810Z,551.25
2023-05-05T07:33:30.896Z,556.88
2023-05-05T07:34:31.005Z,545.62
2023-05-05T07:35:31.147Z,579.38
2023-05-05T07:36:31.334Z,618.75
2023-05-05T07:37:31.447Z,658.12
2023-05-05T07:38:31.582Z,720.00
2023-05-05T07:39:31.682Z,759.38
2023-05-05T07:40:31.789Z,776.25
2023-05-05T07:41:31.906Z,770.62
2023-05-05T07:42:32.032Z,708.75
2023-05-05T07:43:32.180Z,877.50
2023-05-05T07:44:32.266Z,900.00
2023-05-05T07:45:33.641Z,916.88
2023-05-05T07:46:32.638Z,708.75
2023-05-05T07:47:32.722Z,753.75
2023-05-05T07:48:32.852Z,725.62
2023-05-05T07:49:32.927Z,748.12
2023-05-05T07:50:33.045Z,731.25
2023-05-05T07:51:34.852Z,826.88
2023-05-05T07:52:44.948Z,860.62
2023-05-05T07:53:34.414Z,815.62
2023-05-05T07:54:33.486Z,838.12
2023-05-05T07:55:33.625Z,736.88
2023-05-05T07:56:33.755Z,776.25
2023-05-05T07:57:33.869Z,810.00
2023-05-05T07:58:33.972Z,922.50
2023-05-05T07:59:34.121Z,1085.62
2023-05-05T08:00:34.227Z,1220.62
2023-05-05T08:01:34.339Z,1248.75
2023-05-05T08:02:34.467Z,1006.88
2023-05-05T08:03:34.733Z,753.75
2023-05-05T08:04:34.716Z,720.00
2023-05-05T08:05:36.437Z,759.38
2023-05-05T08:06:34.901Z,843.75
2023-05-05T08:07:35.054Z,950.62
2023-05-05T08:08:35.152Z,1035.00
2023-05-05T08:09:35.242Z,990.00
2023-05-05T08:10:35.359Z,736.88
2023-05-05T08:11:35.459Z,601.88
2023-05-05T08:12:35.591Z,579.38
2023-05-05T08:13:35.675Z,596.25
2023-05-05T08:14:35.872Z,652.50
2023-05-05T08:15:35.976Z,720.00
2023-05-05T08:16:36.298Z,708.75
2023-05-05T08:17:36.275Z,652.50
2023-05-05T08:18:36.428Z,646.88
2023-05-05T08:19:36.538Z,714.38
2023-05-05T08:20:36.648Z,832.50
2023-05-05T08:21:36.750Z,1271.25
2023-05-05T08:22:36.958Z,765.00
2023-05-05T08:23:37.059Z,748.12
2023-05-05T08:24:37.191Z,770.62
2023-05-05T08:25:37.277Z,714.38
2023-05-05T08:26:37.362Z,1170.00
2023-05-05T08:27:37.529Z,731.25
2023-05-05T08:28:37.637Z,928.12
2023-05-05T08:29:37.743Z,618.75
2023-05-05T08:30:37.845Z,601.88
2023-05-05T08:31:38.082Z,601.88
2023-05-05T08:32:38.092Z,613.12
2023-05-05T08:33:38.249Z,641.25
2023-05-05T08:34:38.355Z,731.25
2023-05-05T08:35:38.466Z,725.62
2023-05-05T08:36:38.592Z,877.50
2023-05-05T08:37:38.754Z,922.50
2023-05-05T08:38:38.858Z,961.88
2023-05-05T08:39:39.015Z,928.12
2023-05-05T08:40:39.179Z,810.00
2023-05-05T08:41:39.289Z,781.88
2023-05-05T08:42:39.781Z,804.38
2023-05-05T08:43:39.519Z,748.12
2023-05-05T08:44:39.635Z,1035.00
2023-05-05T08:45:39.807Z,2205.00
2023-05-05T08:46:39.879Z,2289.38
2023-05-05T08:47:40.158Z,1181.25
2023-05-05T08:48:40.063Z,3262.50
2023-05-05T08:49:40.184Z,3324.38
2023-05-05T08:50:40.345Z,2835.00
2023-05-05T08:51:40.411Z,2025.00
2023-05-05T08:52:40.685Z,2896.88
2023-05-05T08:53:40.665Z,1676.25
2023-05-05T08:54:40.756Z,1985.62
2023-05-05T08:55:40.878Z,1642.50
2023-05-05T08:56:41.037Z,2340.00
2023-05-05T08:57:41.140Z,2525.62
2023-05-05T08:58:41.233Z,2818.12
2023-05-05T08:59:41.503Z,2604.38
2023-05-05T09:00:41.546Z,2137.50
2023-05-05T09:01:41.592Z,2019.38
2023-05-05T09:02:41.837Z,1620.00
2023-05-05T09:03:42.305Z,1276.88
2023-05-05T09:04:42.011Z,1231.88
2023-05-05T09:05:42.175Z,1001.25
2023-05-05T09:06:42.296Z,798.75
2023-05-05T09:07:42.464Z,748.12
2023-05-05T09:08:42.517Z,675.00
2023-05-05T09:09:42.647Z,675.00
2023-05-05T09:10:42.825Z,815.62
2023-05-05T09:11:43.014Z,793.12
2023-05-05T09:12:43.126Z,843.75
2023-05-05T09:13:43.185Z,1153.12
2023-05-05T09:14:43.283Z,1614.38
2023-05-05T09:15:43.450Z,1620.00
2023-05-05T09:16:43.522Z,1417.50
2023-05-05T09:17:43.735Z,1456.88
2023-05-05T09:18:43.722Z,1350.00
2023-05-05T09:19:43.828Z,1417.50
2023-05-05T09:20:43.990Z,1260.00
2023-05-05T09:21:44.196Z,1406.25
2023-05-05T09:22:44.251Z,1608.75
2023-05-05T09:23:44.364Z,1468.12
2023-05-05T09:24:44.487Z,1642.50
2023-05-05T09:25:44.630Z,1732.50
2023-05-05T09:26:44.763Z,1845.00
2023-05-05T09:27:44.956Z,1867.50
2023-05-05T09:28:44.999Z,2019.38
2023-05-05T09:29:45.151Z,2013.75
2023-05-05T09:30:45.288Z,2030.62
2023-05-05T09:31:45.376Z,1766.25
2023-05-05T09:32:45.529Z,1546.88
2023-05-05T09:33:45.578Z,1175.62
2023-05-05T09:34:45.715Z,1057.50
2023-05-05T09:35:45.869Z,1006.88
2023-05-05T09:36:46.032Z,916.88
2023-05-05T09:37:46.084Z,776.25
2023-05-05T09:38:46.196Z,697.50
2023-05-05T09:39:46.322Z,708.75
2023-05-05T09:40:46.478Z,781.88
2023-05-05T09:41:46.619Z,973.12
2023-05-05T09:42:46.720Z,1209.38
2023-05-05T09:43:46.876Z,1366.88
2023-05-05T09:44:47.011Z,1119.38
2023-05-05T09:45:47.157Z,1125.00
2023-05-05T09:46:47.337Z,1181.25
2023-05-05T09:47:47.721Z,1338.75
2023-05-05T09:48:47.501Z,1884.38
2023-05-05T09:49:47.643Z,1783.12
2023-05-05T09:50:47.818Z,1338.75
2023-05-05T09:51:47.928Z,1203.75
2023-05-05T09:52:48.162Z,961.88
2023-05-05T09:53:48.113Z,939.38
2023-05-05T09:54:48.265Z,973.12
2023-05-05T09:55:48.400Z,894.38
2023-05-05T09:56:48.509Z,804.38
2023-05-05T09:57:48.682Z,720.00
2023-05-05T09:58:48.769Z,663.75
2023-05-05T09:59:48.925Z,635.62
2023-05-05T10:00:49.046Z,596.25
2023-05-05T10:01:49.180Z,568.12
2023-05-05T10:02:49.358Z,556.88
2023-05-05T10:03:49.693Z,545.62
2023-05-05T10:04:49.601Z,528.75
2023-05-05T10:05:49.703Z,528.75
2023-05-05T10:06:49.813Z,540.00
2023-05-05T10:07:50.059Z,568.12
2023-05-05T10:08:50.128Z,585.00
2023-05-05T10:09:50.230Z,573.75
2023-05-05T10:10:50.379Z,534.38
2023-05-05T10:11:50.498Z,466.88
2023-05-05T10:12:50.644Z,393.75
2023-05-05T10:13:50.730Z,337.50
2023-05-05T10:14:50.816Z,337.50
2023-05-05T10:15:51.050Z,360.00
2023-05-05T10:16:51.114Z,348.75
2023-05-05T10:18:06.068Z,298.12
2023-05-05T10:18:52.366Z,247.50
2023-05-05T10:19:51.491Z,191.25
2023-05-05T10:20:51.596Z,151.88
2023-05-05T10:21:51.728Z,112.50
2023-05-05T10:22:51.838Z,135.00
2023-05-05T10:23:51.930Z,180.00
2023-05-05T10:24:52.040Z,213.75
2023-05-05T10:25:52.168Z,247.50
2023-05-05T10:26:52.295Z,208.12
2023-05-05T10:27:52.424Z,196.88
2023-05-05T10:28:52.477Z,225.00
2023-05-05T10:29:52.559Z,219.38
2023-05-05T10:30:52.682Z,213.75
2023-05-05T10:31:52.861Z,264.38
2023-05-05T10:33:05.029Z,337.50
2023-05-05T10:33:54.105Z,388.12
2023-05-05T10:34:53.171Z,388.12
2023-05-05T10:35:53.264Z,365.62
2023-05-05T10:36:53.425Z,343.12
2023-05-05T10:37:53.511Z,320.62
2023-05-05T10:38:53.665Z,298.12
2023-05-05T10:39:53.814Z,286.88
2023-05-05T10:40:53.960Z,281.25
2023-05-05T10:41:54.120Z,275.62
2023-05-05T10:42:54.196Z,281.25
2023-05-05T10:43:54.307Z,303.75
2023-05-05T10:44:54.452Z,360.00
2023-05-05T10:45:54.720Z,416.25
2023-05-05T10:46:54.710Z,472.50
2023-05-05T10:47:54.836Z,495.00
2023-05-05T10:48:54.940Z,495.00
2023-05-05T10:49:55.062Z,483.75
2023-05-05T10:50:55.217Z,478.12
2023-05-05T10:51:55.432Z,489.38
2023-05-05T10:52:55.464Z,534.38
2023-05-05T10:53:55.605Z,596.25
2023-05-05T10:54:55.777Z,630.00
2023-05-05T10:55:55.846Z,652.50
2023-05-05T10:56:55.972Z,658.12
2023-05-05T10:57:56.073Z,635.62
2023-05-05T10:59:00.132Z,596.25
2023-05-05T10:59:56.332Z,562.50
2023-05-05T11:00:56.531Z,545.62
2023-05-05T11:01:56.624Z,540.00
2023-05-05T11:02:56.853Z,540.00
2023-05-05T11:03:56.889Z,534.38
2023-05-05T11:04:56.998Z,534.38
2023-05-05T11:05:57.140Z,545.62
2023-05-05T11:06:57.291Z,556.88
2023-05-05T11:07:57.451Z,562.50
2023-05-05T11:08:57.522Z,573.75
2023-05-05T11:09:57.700Z,579.38
2023-05-05T11:10:57.797Z,585.00
2023-05-05T11:11:57.941Z,596.25
2023-05-05T11:12:58.180Z,601.88
2023-05-05T11:13:58.250Z,613.12
2023-05-05T11:14:58.362Z,601.88
2023-05-05T11:15:58.455Z,590.62
2023-05-05T11:16:58.716Z,585.00
2023-05-05T11:17:58.766Z,579.38
2023-05-05T11:18:58.820Z,590.62
2023-05-05T11:19:58.902Z,618.75
2023-05-05T11:20:59.074Z,669.38
2023-05-05T11:21:59.161Z,731.25
2023-05-05T11:22:59.285Z,798.75
2023-05-05T11:23:59.417Z,894.38
2023-05-05T11:24:59.514Z,928.12
2023-05-05T11:25:59.641Z,945.00
2023-05-05T11:26:59.735Z,978.75
2023-05-05T11:27:59.939Z,956.25
2023-05-05T11:28:59.974Z,911.25
2023-05-05T11:30:00.189Z,916.88
2023-05-05T11:31:00.260Z,922.50
2023-05-05T11:32:00.321Z,928.12
2023-05-05T11:33:00.463Z,933.75
2023-05-05T11:34:00.578Z,978.75
2023-05-05T11:35:00.715Z,967.50
2023-05-05T11:36:01.848Z,973.12
2023-05-05T11:37:00.931Z,1068.75
2023-05-05T11:38:01.052Z,1175.62
2023-05-05T11:39:01.225Z,1192.50
2023-05-05T11:40:01.335Z,1316.25
2023-05-05T11:41:01.416Z,1226.25
2023-05-05T11:42:05.378Z,1136.25
2023-05-05T11:43:02.705Z,1141.88
2023-05-05T11:44:01.827Z,1220.62
2023-05-05T11:45:01.944Z,1192.50
2023-05-05T11:46:02.092Z,1170.00
2023-05-05T11:47:04.728Z,1136.25
2023-05-05T11:48:02.419Z,1226.25
2023-05-05T11:49:02.452Z,1254.38
2023-05-05T11:50:02.564Z,1254.38
2023-05-05T11:51:02.671Z,1170.00
2023-05-05T11:52:02.777Z,1085.62
2023-05-05T11:53:02.880Z,1074.38
2023-05-05T11:54:03.022Z,1096.88
2023-05-05T11:55:03.084Z,1293.75
2023-05-05T11:56:03.175Z,1108.12
2023-05-05T11:57:03.272Z,1091.25
2023-05-05T11:58:03.375Z,905.62
2023-05-05T11:59:03.585Z,1231.88
2023-05-05T12:00:03.685Z,1276.88
2023-05-05T12:01:03.773Z,1153.12
2023-05-05T12:02:03.908Z,1012.50
2023-05-05T12:03:04.148Z,883.12
2023-05-05T12:04:04.250Z,843.75
2023-05-05T12:05:04.345Z,950.62
2023-05-05T12:06:04.412Z,1051.88
2023-05-05T12:07:04.540Z,1040.62
2023-05-05T12:08:04.681Z,1068.75
2023-05-05T12:09:04.795Z,1102.50
2023-05-05T12:10:05.008Z,1046.25
2023-05-05T12:11:05.068Z,1130.62
2023-05-05T12:12:05.143Z,995.62
2023-05-05T12:13:05.281Z,1096.88
2023-05-05T12:14:05.331Z,1130.62
2023-05-05T12:15:05.494Z,1108.12
2023-05-05T12:16:05.617Z,1108.12
2023-05-05T12:17:05.721Z,1153.12
2023-05-05T12:18:05.854Z,1068.75
2023-05-05T12:19:05.944Z,939.38
2023-05-05T12:20:06.288Z,883.12
2023-05-05T12:21:06.271Z,838.12
2023-05-05T12:22:06.377Z,843.75
2023-05-05T12:23:06.507Z,916.88
2023-05-05T12:24:06.655Z,995.62
2023-05-05T12:25:06.860Z,1091.25
2023-05-05T12:26:06.904Z,1130.62
2023-05-05T12:27:07.051Z,1305.00
2023-05-05T12:28:07.289Z,1282.50
2023-05-05T12:29:07.308Z,1074.38
2023-05-05T12:30:07.728Z,1659.38
2023-05-05T12:31:07.689Z,1665.00
2023-05-05T12:32:07.749Z,1462.50
2023-05-05T12:33:07.855Z,1884.38
2023-05-05T12:34:08.001Z,2013.75
2023-05-05T12:35:08.159Z,1231.88
2023-05-05T12:36:08.231Z,877.50
2023-05-05T12:37:08.334Z,866.25
2023-05-05T12:38:08.491Z,1389.38
2023-05-05T12:39:08.614Z,1248.75
2023-05-05T12:40:09.058Z,1068.75
2023-05-05T12:41:08.895Z,990.00
2023-05-05T12:42:08.993Z,900.00
2023-05-05T12:43:09.116Z,894.38
2023-05-05T12:44:09.265Z,798.75
2023-05-05T12:45:09.401Z,973.12